createdAt,value
2016-06-18T00:00:54.726Z,1005.1
2016-06-18T00:01:54.777Z,1005.06
2016-06-18T00:02:54.811Z,1005.1
2016-06-18T00:03:54.846Z,1005.1
2016-06-18T00:04:54.880Z,1005.08
2016-06-18T00:05:54.915Z,1005.08
2016-06-18T00:06:54.950Z,1005.16
2016-06-18T00:07:54.985Z,1005.12
2016-06-18T00:08:55.035Z,1005.11
2016-06-18T00:09:55.054Z,1005.12
2016-06-18T00:10:55.090Z,1005.14
2016-06-18T00:11:55.140Z,1005.19
2016-06-18T00:12:55.175Z,1005.14
2016-06-18T00:13:55.209Z,1005.18
2016-06-18T00:14:55.243Z,1005.18
2016-06-18T00:15:55.278Z,1005.15
2016-06-18T00:16:55.313Z,1005.18
2016-06-18T00:17:55.347Z,1005.17
2016-06-18T00:18:55.382Z,1005.17
2016-06-18T00:19:55.417Z,1005.17
2016-06-18T00:20:55.452Z,1005.18
2016-06-18T00:21:55.487Z,1005.2
2016-06-18T00:22:55.537Z,1005.2
2016-06-18T00:23:55.572Z,1005.2
2016-06-18T00:24:55.606Z,1005.18
2016-06-18T00:25:55.641Z,1005.16
2016-06-18T00:26:55.676Z,1005.2
2016-06-18T00:27:55.710Z,1005.19
2016-06-18T00:28:55.745Z,1005.2
2016-06-18T00:29:55.780Z,1005.21
2016-06-18T00:30:55.814Z,1005.16
2016-06-18T00:31:55.850Z,1005.19
2016-06-18T00:32:55.883Z,1005.16
2016-06-18T00:33:55.934Z,1005.15
2016-06-18T00:34:55.969Z,1005.17
2016-06-18T00:35:56.004Z,1005.16
2016-06-18T00:36:56.039Z,1005.17
2016-06-18T00:37:56.073Z,1005.16
2016-06-18T00:38:56.108Z,1005.17
2016-06-18T00:39:56.143Z,1005.13
2016-06-18T00:40:56.177Z,1005.14
2016-06-18T00:41:56.212Z,1005.17
2016-06-18T00:42:56.248Z,1005.17
2016-06-18T00:43:56.282Z,1005.13
2016-06-18T00:44:56.332Z,1005.17
2016-06-18T00:45:56.366Z,1005.2
2016-06-18T00:46:56.401Z,1005.19
2016-06-18T00:47:56.435Z,1005.18
2016-06-18T00:48:56.471Z,1005.17
2016-06-18T00:49:56.505Z,1005.17
2016-06-18T00:50:56.539Z,1005.18
2016-06-18T00:51:56.575Z,1005.2
2016-06-18T00:52:56.610Z,1005.16
2016-06-18T00:53:56.660Z,1005.14
2016-06-18T00:54:56.679Z,1005.09
2016-06-18T00:55:56.713Z,1005.09
2016-06-18T00:56:56.764Z,1005.09
2016-06-18T00:57:56.799Z,1005.09
2016-06-18T00:58:56.834Z,1005.09
2016-06-18T00:59:56.868Z,1005.11
2016-06-18T01:00:56.903Z,1005.09
2016-06-18T01:01:56.938Z,1005.11
2016-06-18T01:02:56.972Z,1005.12
2016-06-18T01:03:57.023Z,1005.13
2016-06-18T01:04:57.041Z,1005.11
2016-06-18T01:05:57.077Z,1005.13
2016-06-18T01:06:57.126Z,1005.1
2016-06-18T01:07:57.162Z,1005.07
2016-06-18T01:08:57.196Z,1005.08
2016-06-18T01:09:57.230Z,1005.09
2016-06-18T01:10:57.265Z,1005.08
2016-06-18T01:11:57.301Z,1005.1
2016-06-18T01:12:57.335Z,1005.11
2016-06-18T01:13:57.370Z,1005.14
2016-06-18T01:14:57.404Z,1005.16
2016-06-18T01:15:57.439Z,1005.14
2016-06-18T01:16:57.474Z,1005.15
2016-06-18T01:17:57.524Z,1005.16
2016-06-18T01:18:57.559Z,1005.14
2016-06-18T01:19:57.593Z,1005.17
2016-06-18T01:20:57.629Z,1005.15
2016-06-18T01:21:57.663Z,1005.18
2016-06-18T01:22:57.697Z,1005.2
2016-06-18T01:23:57.749Z,1005.19
2016-06-18T01:24:57.767Z,1005.17
2016-06-18T01:25:57.802Z,1005.21
2016-06-18T01:26:57.837Z,1005.21
2016-06-18T01:27:57.871Z,1005.21
2016-06-18T01:28:57.906Z,1005.22
2016-06-18T01:29:57.956Z,1005.24
2016-06-18T01:30:57.992Z,1005.26
2016-06-18T01:31:58.026Z,1005.23
2016-06-18T01:32:58.061Z,1005.24
2016-06-18T01:33:58.095Z,1005.24
2016-06-18T01:34:58.130Z,1005.24
2016-06-18T01:35:58.164Z,1005.25
2016-06-18T01:36:58.199Z,1005.24
2016-06-18T01:37:58.234Z,1005.28
2016-06-18T01:38:58.269Z,1005.3
2016-06-18T01:39:58.304Z,1005.26
2016-06-18T01:40:58.354Z,1005.28
2016-06-18T01:41:58.373Z,1005.31
2016-06-18T01:42:58.423Z,1005.31
2016-06-18T01:43:58.458Z,1005.32
2016-06-18T01:44:58.493Z,1005.31
2016-06-18T01:45:58.528Z,1005.35
2016-06-18T01:46:58.562Z,1005.33
2016-06-18T01:47:58.597Z,1005.31
2016-06-18T01:48:58.632Z,1005.3
2016-06-18T01:49:58.667Z,1005.27
2016-06-18T01:50:58.700Z,1005.25
2016-06-18T01:51:58.736Z,1005.31
2016-06-18T01:52:58.771Z,1005.33
2016-06-18T01:53:58.824Z,1005.28
2016-06-18T01:54:58.861Z,1005.32
2016-06-18T01:55:58.898Z,1005.32
2016-06-18T01:56:58.936Z,1005.33
2016-06-18T01:57:58.975Z,1005.29
2016-06-18T01:58:59.011Z,1005.34
2016-06-18T01:59:59.046Z,1005.34
2016-06-18T02:00:59.082Z,1005.33
2016-06-18T02:01:59.119Z,1005.32
2016-06-18T02:02:59.154Z,1005.32
2016-06-18T02:03:59.189Z,1005.36
2016-06-18T02:04:59.240Z,1005.32
2016-06-18T02:05:59.275Z,1005.33
2016-06-18T02:06:59.311Z,1005.33
2016-06-18T02:07:59.346Z,1005.3
2016-06-18T02:08:59.381Z,1005.29
2016-06-18T02:09:59.415Z,1005.28
2016-06-18T02:10:59.451Z,1005.33
2016-06-18T02:11:59.486Z,1005.31
2016-06-18T02:12:59.521Z,1005.34
2016-06-18T02:13:59.555Z,1005.33
2016-06-18T02:14:59.591Z,1005.33
2016-06-18T02:15:59.640Z,1005.33
2016-06-18T02:16:59.676Z,1005.31
2016-06-18T02:17:59.710Z,1005.3
2016-06-18T02:18:59.744Z,1005.31
2016-06-18T02:19:59.779Z,1005.3
2016-06-18T02:20:59.814Z,1005.33
2016-06-18T02:21:59.849Z,1005.32
2016-06-18T02:22:59.883Z,1005.32
2016-06-18T02:23:59.918Z,1005.35
2016-06-18T02:24:59.953Z,1005.34
2016-06-18T02:25:59.988Z,1005.37
2016-06-18T02:27:00.022Z,1005.32
2016-06-18T02:28:00.056Z,1005.35
2016-06-18T02:29:00.107Z,1005.37
2016-06-18T02:30:00.143Z,1005.36
2016-06-18T02:31:00.177Z,1005.35
2016-06-18T02:32:00.212Z,1005.34
2016-06-18T02:33:00.246Z,1005.37
2016-06-18T02:34:00.281Z,1005.35
2016-06-18T02:35:00.316Z,1005.35
2016-06-18T02:36:00.351Z,1005.35
2016-06-18T02:37:00.384Z,1005.38
2016-06-18T02:38:00.420Z,1005.39
2016-06-18T02:39:00.470Z,1005.35
2016-06-18T02:40:00.506Z,1005.35
2016-06-18T02:41:00.523Z,1005.34
2016-06-18T02:42:00.559Z,1005.35
2016-06-18T02:43:00.608Z,1005.36
2016-06-18T02:44:00.644Z,1005.35
2016-06-18T02:45:00.679Z,1005.36
2016-06-18T02:46:00.712Z,1005.35
2016-06-18T02:47:00.747Z,1005.36
2016-06-18T02:48:00.783Z,1005.35
2016-06-18T02:49:00.818Z,1005.35
2016-06-18T02:50:00.851Z,1005.36
2016-06-18T02:51:00.886Z,1005.35
2016-06-18T02:52:00.937Z,1005.33
2016-06-18T02:53:00.972Z,1005.36
2016-06-18T02:54:01.006Z,1005.33
2016-06-18T02:55:01.041Z,1005.31
2016-06-18T02:56:01.075Z,1005.33
2016-06-18T02:57:01.111Z,1005.32
2016-06-18T02:58:01.146Z,1005.34
2016-06-18T02:59:01.180Z,1005.3
2016-06-18T03:00:01.214Z,1005.39
2016-06-18T03:01:01.250Z,1005.39
2016-06-18T03:02:01.284Z,1005.36
2016-06-18T03:03:01.335Z,1005.4
2016-06-18T03:04:01.369Z,1005.4
2016-06-18T03:05:01.403Z,1005.43
2016-06-18T03:06:01.438Z,1005.42
2016-06-18T03:07:01.474Z,1005.42
2016-06-18T03:08:01.508Z,1005.45
2016-06-18T03:09:01.542Z,1005.46
2016-06-18T03:10:01.577Z,1005.46
2016-06-18T03:11:01.612Z,1005.46
2016-06-18T03:12:01.647Z,1005.45
2016-06-18T03:13:01.681Z,1005.43
2016-06-18T03:14:01.715Z,1005.47
2016-06-18T03:15:01.766Z,1005.47
2016-06-18T03:16:01.786Z,1005.44
2016-06-18T03:17:01.836Z,1005.46
2016-06-18T03:18:01.871Z,1005.43
2016-06-18T03:19:01.905Z,1005.43
2016-06-18T03:20:01.940Z,1005.46
2016-06-18T03:21:01.975Z,1005.46
2016-06-18T03:22:02.010Z,1005.48
2016-06-18T03:23:02.043Z,1005.48
2016-06-18T03:24:02.079Z,1005.48
2016-06-18T03:25:02.114Z,1005.52
2016-06-18T03:26:02.164Z,1005.54
2016-06-18T03:27:02.198Z,1005.57
2016-06-18T03:28:02.233Z,1005.55
2016-06-18T03:29:02.267Z,1005.55
2016-06-18T03:30:02.303Z,1005.55
2016-06-18T03:31:02.338Z,1005.55
2016-06-18T03:32:02.371Z,1005.56
2016-06-18T03:33:02.406Z,1005.54
2016-06-18T03:34:02.442Z,1005.57
2016-06-18T03:35:02.477Z,1005.55
2016-06-18T03:36:02.510Z,1005.56
2016-06-18T03:37:02.561Z,1005.61
2016-06-18T03:38:02.581Z,1005.55
2016-06-18T03:39:02.631Z,1005.64
2016-06-18T03:40:02.666Z,1005.64
2016-06-18T03:41:02.700Z,1005.6
2016-06-18T03:42:02.734Z,1005.62
2016-06-18T03:43:02.770Z,1005.62
2016-06-18T03:44:02.805Z,1005.65
2016-06-18T03:45:02.839Z,1005.65
2016-06-18T03:46:02.873Z,1005.68
2016-06-18T03:47:02.909Z,1005.68
2016-06-18T03:48:02.958Z,1005.7
2016-06-18T03:49:02.994Z,1005.68
2016-06-18T03:50:03.028Z,1005.68
2016-06-18T03:51:03.079Z,1005.69
2016-06-18T03:52:03.097Z,1005.71
2016-06-18T03:53:03.133Z,1005.72
2016-06-18T03:54:03.167Z,1005.69
2016-06-18T03:55:03.201Z,1005.72
2016-06-18T03:56:03.236Z,1005.7
2016-06-18T03:57:03.271Z,1005.73
2016-06-18T03:58:03.306Z,1005.74
2016-06-18T03:59:03.356Z,1005.75
2016-06-18T04:00:03.391Z,1005.77
2016-06-18T04:01:03.441Z,1005.71
2016-06-18T04:02:03.461Z,1005.73
2016-06-18T04:03:03.495Z,1005.73
2016-06-18T04:04:03.530Z,1005.71
2016-06-18T04:05:03.564Z,1005.76
2016-06-18T04:06:03.599Z,1005.74
2016-06-18T04:07:03.634Z,1005.73
2016-06-18T04:08:03.669Z,1005.77
2016-06-18T04:09:03.703Z,1005.82
2016-06-18T04:10:03.755Z,1005.77
2016-06-18T04:11:03.781Z,1005.79
2016-06-18T04:12:03.838Z,1005.79
2016-06-18T04:13:03.879Z,1005.75
2016-06-18T04:14:03.918Z,1005.78
2016-06-18T04:15:03.958Z,1005.8
2016-06-18T04:16:03.996Z,1005.82
2016-06-18T04:17:04.033Z,1005.88
2016-06-18T04:18:04.085Z,1005.87
2016-06-18T04:19:04.106Z,1005.89
2016-06-18T04:20:04.143Z,1005.86
2016-06-18T04:21:04.195Z,1005.9
2016-06-18T04:22:04.213Z,1005.89
2016-06-18T04:23:04.282Z,1005.89
2016-06-18T04:24:04.300Z,1005.93
2016-06-18T04:25:04.336Z,1005.91
2016-06-18T04:26:04.371Z,1005.9
2016-06-18T04:27:04.407Z,1005.91
2016-06-18T04:28:04.441Z,1005.9
2016-06-18T04:29:04.477Z,1005.87
2016-06-18T04:30:04.512Z,1005.93
2016-06-18T04:31:04.562Z,1005.88
2016-06-18T04:32:04.580Z,1005.89
2016-06-18T04:33:04.616Z,1005.92
2016-06-18T04:34:04.665Z,1005.89
2016-06-18T04:35:04.701Z,1005.93
2016-06-18T04:36:04.736Z,1005.92
2016-06-18T04:37:04.769Z,1005.93
2016-06-18T04:38:04.804Z,1005.96
2016-06-18T04:39:04.855Z,1005.97
2016-06-18T04:40:04.874Z,1005.97
2016-06-18T04:41:04.908Z,1005.99
2016-06-18T04:42:04.959Z,1005.99
2016-06-18T04:43:04.993Z,1005.98
2016-06-18T04:44:05.029Z,1005.98
2016-06-18T04:45:05.064Z,1005.99
2016-06-18T04:46:05.098Z,1005.99
2016-06-18T04:47:05.132Z,1006.04
2016-06-18T04:48:05.168Z,1006.03
2016-06-18T04:49:05.202Z,1006.07
2016-06-18T04:50:05.237Z,1006.09
2016-06-18T04:51:05.271Z,1006.11
2016-06-18T04:52:05.322Z,1006.11
2016-06-18T04:53:05.356Z,1006.11
2016-06-18T04:54:05.391Z,1006.12
2016-06-18T04:55:05.426Z,1006.13
2016-06-18T04:56:05.460Z,1006.12
2016-06-18T04:57:05.495Z,1006.15
2016-06-18T04:58:05.545Z,1006.14
2016-06-18T04:59:05.565Z,1006.11
2016-06-18T05:00:05.599Z,1006.15
2016-06-18T05:01:05.633Z,1006.14
2016-06-18T05:02:05.669Z,1006.18
2016-06-18T05:03:05.704Z,1006.18
2016-06-18T05:04:05.754Z,1006.2
2016-06-18T05:05:05.789Z,1006.22
2016-06-18T05:06:05.823Z,1006.22
2016-06-18T05:07:05.858Z,1006.24
2016-06-18T05:08:05.893Z,1006.26
2016-06-18T05:09:05.928Z,1006.23
2016-06-18T05:10:05.961Z,1006.29
2016-06-18T05:11:05.997Z,1006.3
2016-06-18T05:12:06.047Z,1006.31
2016-06-18T05:13:06.067Z,1006.33
2016-06-18T05:14:06.116Z,1006.35
2016-06-18T05:15:06.151Z,1006.33
2016-06-18T05:16:06.185Z,1006.38
2016-06-18T05:17:06.221Z,1006.38
2016-06-18T05:18:06.256Z,1006.38
2016-06-18T05:19:06.289Z,1006.4
2016-06-18T05:20:06.324Z,1006.39
2016-06-18T05:21:06.360Z,1006.42
2016-06-18T05:22:06.410Z,1006.45
2016-06-18T05:23:06.445Z,1006.45
2016-06-18T05:24:06.480Z,1006.44
2016-06-18T05:25:06.513Z,1006.48
2016-06-18T05:26:06.549Z,1006.47
2016-06-18T05:27:06.584Z,1006.47
2016-06-18T05:28:06.618Z,1006.48
2016-06-18T05:29:06.652Z,1006.51
2016-06-18T05:30:06.703Z,1006.52
2016-06-18T05:31:06.737Z,1006.5
2016-06-18T05:32:06.773Z,1006.54
2016-06-18T05:33:06.808Z,1006.53
2016-06-18T05:34:06.841Z,1006.51
2016-06-18T05:35:06.876Z,1006.53
2016-06-18T05:36:06.912Z,1006.56
2016-06-18T05:37:06.946Z,1006.6
2016-06-18T05:38:06.996Z,1006.59
2016-06-18T05:39:07.015Z,1006.57
2016-06-18T05:40:07.066Z,1006.61
2016-06-18T05:41:07.101Z,1006.61
2016-06-18T05:42:07.136Z,1006.59
2016-06-18T05:43:07.170Z,1006.63
2016-06-18T05:44:07.204Z,1006.65
2016-06-18T05:45:07.240Z,1006.64
2016-06-18T05:46:07.274Z,1006.63
2016-06-18T05:47:07.309Z,1006.66
2016-06-18T05:48:07.343Z,1006.64
2016-06-18T05:49:07.394Z,1006.67
2016-06-18T05:50:07.428Z,1006.71
2016-06-18T05:51:07.464Z,1006.64
2016-06-18T05:52:07.498Z,1006.69
2016-06-18T05:53:07.532Z,1006.66
2016-06-18T05:54:07.567Z,1006.66
2016-06-18T05:55:07.602Z,1006.67
2016-06-18T05:56:07.653Z,1006.7
2016-06-18T05:57:07.688Z,1006.7
2016-06-18T05:58:07.722Z,1006.67
2016-06-18T05:59:07.756Z,1006.65
2016-06-18T06:00:07.792Z,1006.65
2016-06-18T06:01:07.826Z,1006.63
2016-06-18T06:02:07.861Z,1006.71
2016-06-18T06:03:07.895Z,1006.68
2016-06-18T06:04:07.930Z,1006.7
2016-06-18T06:05:07.965Z,1006.71
2016-06-18T06:06:08.016Z,1006.72
2016-06-18T06:07:08.050Z,1006.71
2016-06-18T06:08:08.084Z,1006.74
2016-06-18T06:09:08.119Z,1006.71
2016-06-18T06:10:08.154Z,1006.71
2016-06-18T06:11:08.189Z,1006.73
2016-06-18T06:12:08.223Z,1006.74
2016-06-18T06:13:08.257Z,1006.78
2016-06-18T06:14:08.308Z,1006.75
2016-06-18T06:15:08.343Z,1006.77
2016-06-18T06:16:08.378Z,1006.79
2016-06-18T06:17:08.413Z,1006.78
2016-06-18T06:18:08.447Z,1006.77
2016-06-18T06:19:08.482Z,1006.81
2016-06-18T06:20:08.517Z,1006.8
2016-06-18T06:21:08.551Z,1006.8
2016-06-18T06:22:08.601Z,1006.83
2016-06-18T06:23:08.636Z,1006.87
2016-06-18T06:24:08.670Z,1006.88
2016-06-18T06:25:08.707Z,1006.87
2016-06-18T06:26:08.741Z,1006.86
2016-06-18T06:27:08.776Z,1006.88
2016-06-18T06:28:08.828Z,1006.85
2016-06-18T06:29:08.862Z,1006.84
2016-06-18T06:30:08.899Z,1006.85
2016-06-18T06:31:08.934Z,1006.88
2016-06-18T06:32:08.969Z,1006.87
2016-06-18T06:33:09.020Z,1006.87
2016-06-18T06:34:09.039Z,1006.89
2016-06-18T06:35:09.089Z,1006.89
2016-06-18T06:36:09.125Z,1006.88
2016-06-18T06:37:09.159Z,1006.89
2016-06-18T06:38:09.193Z,1006.94
2016-06-18T06:39:09.228Z,1006.9
2016-06-18T06:40:09.264Z,1006.87
2016-06-18T06:41:09.299Z,1006.89
2016-06-18T06:42:09.332Z,1006.88
2016-06-18T06:43:09.617Z,1006.91
2016-06-18T06:44:09.417Z,1006.92
2016-06-18T06:45:09.453Z,1006.91
2016-06-18T06:46:09.488Z,1006.93
2016-06-18T06:47:09.522Z,1006.93
2016-06-18T06:48:09.556Z,1006.95
2016-06-18T06:49:09.607Z,1006.95
2016-06-18T06:50:09.642Z,1006.96
2016-06-18T06:51:09.677Z,1006.94
2016-06-18T06:52:09.712Z,1006.95
2016-06-18T06:53:09.745Z,1006.98
2016-06-18T06:54:09.780Z,1006.95
2016-06-18T06:55:09.831Z,1006.97
2016-06-18T06:56:09.866Z,1007
2016-06-18T06:57:09.901Z,1006.99
2016-06-18T06:58:09.935Z,1007
2016-06-18T06:59:09.969Z,1007.04
2016-06-18T07:00:10.005Z,1007.05
2016-06-18T07:01:10.055Z,1007.02
2016-06-18T07:02:10.090Z,1007.03
2016-06-18T07:03:10.125Z,1007.11
2016-06-18T07:04:10.158Z,1007.09
2016-06-18T07:05:10.193Z,1007.05
2016-06-18T07:06:10.244Z,1007.08
2016-06-18T07:07:10.279Z,1007.08
2016-06-18T07:08:10.314Z,1007.08
2016-06-18T07:09:10.348Z,1007.09
2016-06-18T07:10:10.382Z,1007.14
2016-06-18T07:11:10.418Z,1007.17
2016-06-18T07:12:10.484Z,1007.2
2016-06-18T07:13:10.503Z,1007.22
2016-06-18T07:14:10.538Z,1007.24
2016-06-18T07:15:10.571Z,1007.21
2016-06-18T07:16:10.622Z,1007.23
2016-06-18T07:17:10.656Z,1007.23
2016-06-18T07:18:10.692Z,1007.22
2016-06-18T07:19:10.742Z,1007.24
2016-06-18T07:20:10.778Z,1007.26
2016-06-18T07:21:10.811Z,1007.22
2016-06-18T07:22:10.846Z,1007.21
2016-06-18T07:23:10.880Z,1007.21
2016-06-18T07:24:10.916Z,1007.22
2016-06-18T07:25:10.966Z,1007.19
2016-06-18T07:26:11.001Z,1007.23
2016-06-18T07:27:11.036Z,1007.22
2016-06-18T07:28:11.069Z,1007.23
2016-06-18T07:29:11.120Z,1007.24
2016-06-18T07:30:11.170Z,1007.25
2016-06-18T07:31:11.190Z,1007.24
2016-06-18T07:32:11.241Z,1007.23
2016-06-18T07:33:11.275Z,1007.25
2016-06-18T07:34:11.310Z,1007.21
2016-06-18T07:35:11.344Z,1007.26
2016-06-18T07:36:11.411Z,1007.25
2016-06-18T07:37:11.429Z,1007.33
2016-06-18T07:38:11.464Z,1007.3
2016-06-18T07:39:11.515Z,1007.31
2016-06-18T07:40:11.549Z,1007.27
2016-06-18T07:41:11.600Z,1007.33
2016-06-18T07:42:11.634Z,1007.26
2016-06-18T07:43:11.668Z,1007.24
2016-06-18T07:44:11.703Z,1007.25
2016-06-18T07:45:11.753Z,1007.26
2016-06-18T07:46:11.789Z,1007.28
2016-06-18T07:47:11.839Z,1007.3
2016-06-18T07:48:11.921Z,1007.35
2016-06-18T07:49:11.905Z,1007.4
2016-06-18T07:50:11.959Z,1007.36
2016-06-18T07:51:11.994Z,1007.39
2016-06-18T07:52:12.027Z,1007.37
2016-06-18T07:53:12.078Z,1007.41
2016-06-18T07:54:12.112Z,1007.4
2016-06-18T07:55:12.163Z,1007.4
2016-06-18T07:56:12.198Z,1007.41
2016-06-18T07:57:12.248Z,1007.43
2016-06-18T07:58:12.284Z,1007.42
2016-06-18T07:59:12.318Z,1007.4
2016-06-18T08:00:12.352Z,1007.44
2016-06-18T08:01:12.403Z,1007.44
2016-06-18T08:02:12.437Z,1007.44
2016-06-18T08:03:12.473Z,1007.41
2016-06-18T08:04:12.522Z,1007.46
2016-06-18T08:05:12.558Z,1007.47
2016-06-18T08:06:12.608Z,1007.48
2016-06-18T08:07:12.626Z,1007.46
2016-06-18T08:08:12.677Z,1007.48
2016-06-18T08:09:12.711Z,1007.52
2016-06-18T08:10:12.747Z,1007.53
2016-06-18T08:11:12.796Z,1007.57
2016-06-18T08:12:12.832Z,1007.53
2016-06-18T08:13:12.867Z,1007.54
2016-06-18T08:14:12.900Z,1007.52
2016-06-18T08:15:12.952Z,1007.55
2016-06-18T08:16:12.985Z,1007.57
2016-06-18T08:17:13.021Z,1007.61
2016-06-18T08:18:13.070Z,1007.59
2016-06-18T08:19:13.107Z,1007.62
2016-06-18T08:20:13.141Z,1007.6
2016-06-18T08:21:13.175Z,1007.63
2016-06-18T08:22:13.209Z,1007.63
2016-06-18T08:23:13.260Z,1007.64
2016-06-18T08:24:13.295Z,1007.65
2016-06-18T08:25:13.330Z,1007.64
2016-06-18T08:26:13.381Z,1007.67
2016-06-18T08:27:13.415Z,1007.7
2016-06-18T08:28:13.449Z,1007.7
2016-06-18T08:29:13.499Z,1007.69
2016-06-18T08:30:13.534Z,1007.7
2016-06-18T08:31:13.570Z,1007.68
2016-06-18T08:32:13.604Z,1007.72
2016-06-18T08:33:13.639Z,1007.71
2016-06-18T08:34:13.689Z,1007.74
2016-06-18T08:35:13.723Z,1007.72
2016-06-18T08:36:13.758Z,1007.69
2016-06-18T08:37:13.793Z,1007.73
2016-06-18T08:38:13.844Z,1007.75
2016-06-18T08:39:13.878Z,1007.76
2016-06-18T08:40:13.913Z,1007.75
2016-06-18T08:41:13.947Z,1007.79
2016-06-18T08:42:13.997Z,1007.86
2016-06-18T08:43:14.034Z,1007.8
2016-06-18T08:47:04.484Z,1007.83
2016-06-18T08:47:14.625Z,1007.84
2016-06-18T08:47:32.406Z,1007.91
2016-06-18T08:48:32.460Z,1007.93
2016-06-18T08:49:32.482Z,1007.89
2016-06-18T08:50:32.534Z,1007.93
2016-06-18T08:51:32.570Z,1007.93
2016-06-18T08:52:32.622Z,1007.94
2016-06-18T08:53:32.658Z,1007.92
2016-06-18T08:54:32.692Z,1007.95
2016-06-18T08:55:32.744Z,1007.96
2016-06-18T08:56:32.778Z,1007.97
2016-06-18T08:57:32.829Z,1007.99
2016-06-18T08:58:32.864Z,1007.97
2016-06-18T08:59:32.900Z,1008
2016-06-18T09:00:32.950Z,1008.02
2016-06-18T09:01:32.986Z,1008.03
2016-06-18T09:02:33.021Z,1008
2016-06-18T09:03:33.070Z,1008.03
2016-06-18T09:04:33.105Z,1007.92
2016-06-18T09:05:33.140Z,1007.96
2016-06-18T09:06:33.190Z,1007.95
2016-06-18T09:07:33.240Z,1007.95
2016-06-18T09:08:33.275Z,1007.99
2016-06-18T09:09:33.311Z,1007.99
2016-06-18T09:10:33.361Z,1008
2016-06-18T09:11:33.395Z,1008.01
2016-06-18T09:12:33.446Z,1007.99
2016-06-18T09:13:33.497Z,1008.04
2016-06-18T09:14:33.531Z,1008.05
2016-06-18T09:15:33.565Z,1008.02
2016-06-18T09:16:33.616Z,1008.02
2016-06-18T09:17:33.667Z,1008.03
2016-06-18T09:21:08.741Z,1008
2016-06-18T09:22:08.775Z,1007.97
2016-06-18T09:23:08.810Z,1008.01
2016-06-18T09:24:08.861Z,1007.98
2016-06-18T09:25:08.895Z,1008.06
2016-06-18T09:26:08.945Z,1008.05
2016-06-18T09:27:08.981Z,1008.06
2016-06-18T09:28:09.047Z,1008.02
2016-06-18T09:29:09.066Z,1008.04
2016-06-18T09:31:09.135Z,1008.11
2016-06-18T09:32:09.171Z,1008.08
2016-06-18T09:33:09.220Z,1008.1
2016-06-18T09:34:09.255Z,1008.12
2016-06-18T09:35:09.306Z,1008.04
2016-06-18T09:36:09.340Z,1008.11
2016-06-18T09:37:09.390Z,1008.08
2016-06-18T09:38:09.409Z,1008.07
2016-06-18T09:39:09.460Z,1008.02
2016-06-18T09:40:09.494Z,1008.03
2016-06-18T09:41:09.545Z,1008.07
2016-06-18T09:42:09.580Z,1008.04
2016-06-18T09:43:09.630Z,1008.06
2016-06-18T09:44:09.648Z,1008.05
2016-06-18T09:45:09.699Z,1008.03
2016-06-18T09:46:09.734Z,1008.04
2016-06-18T09:47:09.768Z,1008.05
2016-06-18T09:48:09.818Z,1008.02
2016-06-18T09:49:09.854Z,1008.02
2016-06-18T09:50:09.888Z,1008.01
2016-06-18T09:51:09.939Z,1008
2016-06-18T09:52:09.974Z,1007.97
2016-06-18T09:53:10.008Z,1008
2016-06-18T09:54:10.058Z,1008.04
2016-06-18T09:55:10.093Z,1008.03
2016-06-18T09:56:10.128Z,1008.05
2016-06-18T09:57:10.178Z,1008.09
2016-06-18T09:58:10.213Z,1008.09
2016-06-18T09:59:10.247Z,1008.1
2016-06-18T10:00:10.298Z,1008.11
2016-06-18T10:01:10.332Z,1008.14
2016-06-18T10:02:10.367Z,1008.16
2016-06-18T10:03:10.417Z,1008.14
2016-06-18T10:04:10.452Z,1008.12
2016-06-18T10:05:10.487Z,1008.13
2016-06-18T10:06:10.538Z,1008.17
2016-06-18T10:07:10.572Z,1008.2
2016-06-18T10:08:10.607Z,1008.18
2016-06-18T10:09:10.642Z,1008.17
2016-06-18T10:10:10.677Z,1008.17
2016-06-18T10:11:10.726Z,1008.22
2016-06-18T10:12:10.777Z,1008.23
2016-06-18T10:13:10.796Z,1008.27
2016-06-18T10:14:10.846Z,1008.3
2016-06-18T10:15:10.880Z,1008.31
2016-06-18T10:16:10.915Z,1008.36
2016-06-18T10:17:10.966Z,1008.36
2016-06-18T10:18:11.000Z,1008.38
2016-06-18T10:19:11.036Z,1008.46
2016-06-18T10:20:11.087Z,1008.46
2016-06-18T10:21:11.121Z,1008.47
2016-06-18T10:22:11.155Z,1008.43
2016-06-18T10:23:11.190Z,1008.45
2016-06-18T10:24:11.225Z,1008.46
2016-06-18T10:25:11.290Z,1008.56
2016-06-18T10:26:11.309Z,1008.6
2016-06-18T10:27:11.344Z,1008.54
2016-06-18T10:28:11.394Z,1008.53
2016-06-18T10:29:11.429Z,1008.58
2016-06-18T10:30:11.464Z,1008.57
2016-06-18T10:31:11.499Z,1008.56
2016-06-18T10:32:11.533Z,1008.61
2016-06-18T10:33:11.584Z,1008.67
2016-06-18T10:34:11.618Z,1008.62
2016-06-18T10:35:11.653Z,1008.65
2016-06-18T10:36:11.688Z,1008.62
2016-06-18T10:37:11.753Z,1008.64
2016-06-18T10:38:11.773Z,1008.65
2016-06-18T10:39:11.808Z,1008.64
2016-06-18T10:40:11.858Z,1008.65
2016-06-18T10:41:11.877Z,1008.63
2016-06-18T10:42:11.927Z,1008.64
2016-06-18T10:43:11.962Z,1008.64
2016-06-18T10:44:11.996Z,1008.66
2016-06-18T10:45:12.048Z,1008.62
2016-06-18T10:46:12.066Z,1008.64
2016-06-18T10:47:12.116Z,1008.64
2016-06-18T10:48:12.151Z,1008.62
2016-06-18T10:49:12.186Z,1008.66
2016-06-18T10:50:12.221Z,1008.62
2016-06-18T10:51:12.271Z,1008.64
2016-06-18T10:52:12.306Z,1008.6
2016-06-18T10:53:12.340Z,1008.61
2016-06-18T10:54:12.391Z,1008.6
2016-06-18T10:55:12.410Z,1008.59
2016-06-18T10:56:12.460Z,1008.57
2016-06-18T10:57:12.495Z,1008.55
2016-06-18T10:58:12.529Z,1008.54
2016-06-18T10:59:12.580Z,1008.56
2016-06-18T11:00:12.615Z,1008.52
2016-06-18T11:01:12.650Z,1008.57
2016-06-18T11:02:12.684Z,1008.57
2016-06-18T11:03:12.719Z,1008.58
2016-06-18T11:04:12.769Z,1008.57
2016-06-18T11:05:12.804Z,1008.6
2016-06-18T11:06:12.839Z,1008.59
2016-06-18T11:07:12.874Z,1008.56
2016-06-18T11:08:12.908Z,1008.6
2016-06-18T11:09:12.959Z,1008.62
2016-06-18T11:10:12.993Z,1008.62
2016-06-18T11:11:13.027Z,1008.6
2016-06-18T11:12:13.078Z,1008.6
2016-06-18T11:13:13.113Z,1008.57
2016-06-18T11:14:13.147Z,1008.55
2016-06-18T11:15:13.182Z,1008.61
2016-06-18T11:16:13.232Z,1008.53
2016-06-18T11:17:13.267Z,1008.52
2016-06-18T11:18:13.318Z,1008.55
2016-06-18T11:19:13.352Z,1008.6
2016-06-18T11:20:13.387Z,1008.59
2016-06-18T11:21:13.422Z,1008.58
2016-06-18T11:22:13.473Z,1008.61
2016-06-18T11:23:13.506Z,1008.57
2016-06-18T11:24:13.558Z,1008.55
2016-06-18T11:25:13.590Z,1008.54
2016-06-18T11:26:13.625Z,1008.53
2016-06-18T11:27:13.659Z,1008.53
2016-06-18T11:28:13.709Z,1008.52
2016-06-18T11:29:13.744Z,1008.56
2016-06-18T11:30:13.794Z,1008.52
2016-06-18T11:31:13.830Z,1008.56
2016-06-18T11:32:13.880Z,1008.54
2016-06-18T11:33:13.915Z,1008.59
2016-06-18T11:34:13.949Z,1008.61
2016-06-18T11:41:15.776Z,1008.61
2016-06-18T11:42:15.826Z,1008.58
2016-06-18T11:43:15.861Z,1008.61
2016-06-18T11:44:15.912Z,1008.62
2016-06-18T11:45:15.946Z,1008.57
2016-06-18T11:46:15.981Z,1008.57
2016-06-18T11:47:16.033Z,1008.61
2016-06-18T11:48:16.066Z,1008.64
2016-06-18T11:49:16.101Z,1008.63
2016-06-18T11:50:16.151Z,1008.72
2016-06-18T11:51:16.186Z,1008.68
2016-06-18T11:52:16.221Z,1008.75
2016-06-18T11:53:16.271Z,1008.75
2016-06-18T11:54:16.307Z,1008.79
2016-06-18T11:55:16.356Z,1008.77
2016-06-18T11:56:16.392Z,1008.83
2016-06-18T11:57:16.426Z,1008.84
2016-06-18T11:58:16.477Z,1008.81
2016-06-18T11:59:16.513Z,1008.88
2016-06-18T12:00:16.564Z,1008.86
2016-06-18T12:01:16.600Z,1008.84
2016-06-18T12:02:16.651Z,1008.83
2016-06-18T12:03:16.686Z,1008.81
2016-06-18T12:04:16.723Z,1008.84
2016-06-18T12:05:16.772Z,1008.83
2016-06-18T12:06:16.808Z,1008.82
2016-06-18T12:07:16.859Z,1008.85
2016-06-18T12:08:16.894Z,1008.82
2016-06-18T12:09:16.944Z,1008.82
2016-06-18T12:10:16.995Z,1008.84
2016-06-18T12:11:17.013Z,1008.81
2016-06-18T12:12:17.048Z,1008.83
2016-06-18T12:13:17.098Z,1008.81
2016-06-18T12:14:17.133Z,1008.81
2016-06-18T12:15:17.168Z,1008.77
2016-06-18T12:16:17.219Z,1008.76
2016-06-18T12:17:17.253Z,1008.72
2016-06-18T12:18:17.305Z,1008.75
2016-06-18T12:19:17.339Z,1008.73
2016-06-18T12:20:17.374Z,1008.71